Terminal Aerodrome Forecast
Issued by NWS

Home | Current Version | Previous Version | Text Only | Print | Product List | Glossary On
Versions: 1 2 3 4 5 6 7 8 9 10 11 12 13 14 15 16 17
000
FTUS45 KBYZ 281132
TAFLVM
TAF
KLVM 281132Z 2812/2912 VRB05KT P6SM VCFG SCT005 SCT025 BKN040
     FM281600 27008KT P6SM SCT040 BKN200
     FM281900 28010KT P6SM VCSH SCT040 BKN150
     FM290200 VRB05KT P6SM FEW050 SCT200=

USA.gov is the U.S. government's official web portal to all federal, state and local government web resources and services.